createdAt,value
2023-03-17T00:00:08.078Z,13.27
2023-03-17T00:01:44.666Z,13.95
2023-03-17T00:03:24.727Z,12.32
2023-03-17T00:04:56.496Z,13.68
2023-03-17T00:06:30.385Z,16.50
2023-03-17T00:08:13.055Z,10.05
2023-03-17T00:09:44.844Z,11.18
2023-03-17T00:11:17.680Z,11.57
2023-03-17T00:12:58.536Z,9.77
2023-03-17T00:14:30.965Z,12.00
2023-03-17T00:16:04.781Z,11.70
2023-03-17T00:17:37.128Z,12.38
2023-03-17T00:19:17.254Z,9.73
2023-03-17T00:20:49.412Z,15.52
2023-03-17T00:22:22.363Z,9.80
2023-03-17T00:23:54.885Z,10.45
2023-03-17T00:25:29.146Z,8.80
2023-03-17T00:27:00.881Z,10.13
2023-03-17T00:28:32.578Z,9.27
2023-03-17T00:30:05.448Z,11.32
2023-03-17T00:31:38.205Z,10.93
2023-03-17T00:33:10.737Z,9.75
2023-03-17T00:34:42.740Z,9.35
2023-03-17T00:36:21.342Z,8.90
2023-03-17T00:37:55.562Z,9.50
2023-03-17T00:39:28.682Z,10.60
2023-03-17T00:41:00.259Z,11.68
2023-03-17T00:42:32.679Z,8.98
2023-03-17T00:44:05.379Z,13.60
2023-03-17T00:45:39.874Z,14.20
2023-03-17T00:47:11.863Z,11.75
2023-03-17T00:48:45.114Z,14.32
2023-03-17T00:50:22.526Z,20.13
2023-03-17T00:51:54.294Z,16.20
2023-03-17T00:53:27.121Z,16.27
2023-03-17T00:54:59.121Z,17.80
2023-03-17T00:56:31.098Z,14.68
2023-03-17T00:58:10.467Z,18.67
2023-03-17T00:59:45.173Z,17.75
2023-03-17T01:01:18.479Z,15.93
2023-03-17T01:02:54.268Z,14.85
2023-03-17T01:04:25.903Z,13.65
2023-03-17T01:05:57.809Z,15.82
2023-03-17T01:07:30.468Z,16.50
2023-03-17T01:09:02.096Z,11.90
2023-03-17T01:10:33.744Z,17.45
2023-03-17T01:12:06.352Z,18.15
2023-03-17T01:13:40.494Z,15.85
2023-03-17T01:15:13.996Z,17.10
2023-03-17T01:16:45.720Z,19.77
2023-03-17T01:18:19.602Z,15.00
2023-03-17T01:19:51.287Z,18.15
2023-03-17T01:21:23.835Z,18.65
2023-03-17T01:22:55.880Z,21.70
2023-03-17T01:24:28.534Z,23.85
2023-03-17T01:26:00.143Z,26.38
2023-03-17T01:27:36.521Z,26.80
2023-03-17T01:29:09.318Z,25.42
2023-03-17T01:30:42.530Z,24.25
2023-03-17T01:32:14.130Z,23.05
2023-03-17T01:33:46.065Z,23.98
2023-03-17T01:35:19.479Z,23.10
2023-03-17T01:36:51.107Z,21.83
2023-03-17T01:38:22.795Z,19.17
2023-03-17T01:39:54.797Z,22.95
2023-03-17T01:41:26.484Z,18.65
2023-03-17T01:43:17.436Z,17.85
2023-03-17T01:45:01.213Z,16.58
2023-03-17T01:46:35.894Z,17.20
2023-03-17T01:48:07.516Z,14.90
2023-03-17T01:49:39.642Z,13.57
2023-03-17T01:51:36.340Z,15.30
2023-03-17T01:53:09.473Z,14.77
2023-03-17T01:55:00.605Z,13.75
2023-03-17T01:56:33.003Z,14.93
2023-03-17T01:58:05.494Z,17.30
2023-03-17T01:59:43.669Z,13.48
2023-03-17T02:01:15.446Z,14.57
2023-03-17T02:02:50.386Z,19.95
2023-03-17T02:04:22.544Z,17.60
2023-03-17T02:05:54.516Z,19.98
2023-03-17T02:07:27.560Z,14.68
2023-03-17T02:09:00.174Z,16.65
2023-03-17T02:10:32.328Z,12.02
2023-03-17T02:12:05.425Z,13.02
2023-03-17T02:13:38.413Z,12.35
2023-03-17T02:15:11.469Z,10.25
2023-03-17T02:16:45.332Z,11.10
2023-03-17T02:18:20.058Z,10.82
2023-03-17T02:19:52.396Z,9.43
2023-03-17T02:21:41.650Z,9.88
2023-03-17T02:23:17.664Z,8.63
2023-03-17T02:26:26.770Z,7.70
2023-03-17T02:28:06.385Z,8.75
2023-03-17T02:29:38.072Z,8.63
2023-03-17T02:31:09.910Z,9.70
2023-03-17T02:32:42.111Z,13.27
2023-03-17T02:34:14.209Z,8.88
2023-03-17T02:35:46.192Z,8.35
2023-03-17T02:37:20.941Z,8.35
2023-03-17T02:38:52.767Z,8.32
2023-03-17T02:40:24.478Z,8.57
2023-03-17T02:41:56.165Z,9.10
2023-03-17T02:43:27.727Z,9.55
2023-03-17T02:45:01.230Z,10.18
2023-03-17T02:46:32.942Z,9.02
2023-03-17T02:48:05.896Z,9.48
2023-03-17T02:49:39.557Z,10.10
2023-03-17T02:51:11.153Z,9.80
2023-03-17T02:52:42.760Z,13.27
2023-03-17T02:54:14.435Z,11.23
2023-03-17T02:55:46.365Z,11.68
2023-03-17T02:57:17.912Z,12.93
2023-03-17T02:58:49.723Z,12.40
2023-03-17T03:00:21.744Z,12.57
2023-03-17T03:01:53.526Z,13.05
2023-03-17T03:03:25.117Z,11.50
2023-03-17T03:04:57.355Z,8.50
2023-03-17T03:06:29.025Z,10.52
2023-03-17T03:08:00.959Z,13.50
2023-03-17T03:09:32.598Z,8.77
2023-03-17T03:11:05.042Z,12.35
2023-03-17T03:12:36.696Z,12.00
2023-03-17T03:14:08.653Z,15.48
2023-03-17T03:15:44.095Z,10.05
2023-03-17T03:17:16.442Z,10.38
2023-03-17T03:18:48.227Z,10.38
2023-03-17T03:20:20.929Z,10.10
2023-03-17T03:21:52.561Z,11.75
2023-03-17T03:23:24.329Z,9.65
2023-03-17T03:24:56.002Z,9.43
2023-03-17T03:26:27.525Z,10.32
2023-03-17T03:27:59.182Z,9.98
2023-03-17T03:29:31.237Z,9.20
2023-03-17T03:31:03.073Z,12.52
2023-03-17T03:32:34.809Z,15.35
2023-03-17T03:34:06.517Z,8.48
2023-03-17T03:35:38.565Z,11.38
2023-03-17T03:37:10.378Z,8.45
2023-03-17T03:38:42.733Z,9.82
2023-03-17T03:40:14.410Z,11.30
2023-03-17T03:41:46.201Z,8.05
2023-03-17T03:43:23.324Z,12.65
2023-03-17T03:44:55.829Z,9.43
2023-03-17T03:46:28.195Z,14.38
2023-03-17T03:47:59.916Z,9.55
2023-03-17T03:49:31.553Z,11.35
2023-03-17T03:51:03.463Z,12.80
2023-03-17T03:52:35.499Z,9.82
2023-03-17T03:54:07.132Z,11.30
2023-03-17T03:55:38.803Z,10.02
2023-03-17T03:57:10.775Z,10.75
2023-03-17T03:58:42.341Z,10.25
2023-03-17T04:00:14.525Z,10.52
2023-03-17T04:01:46.163Z,13.20
2023-03-17T04:03:18.100Z,12.45
2023-03-17T04:04:49.865Z,12.70
2023-03-17T04:06:21.747Z,13.05
2023-03-17T04:07:53.803Z,14.45
2023-03-17T04:09:25.836Z,8.88
2023-03-17T04:10:57.994Z,11.70
2023-03-17T04:12:29.656Z,11.75
2023-03-17T04:14:01.715Z,13.57
2023-03-17T04:15:33.617Z,12.23
2023-03-17T04:17:05.301Z,9.00
2023-03-17T04:18:36.985Z,10.25
2023-03-17T04:20:09.957Z,14.57
2023-03-17T04:21:42.244Z,8.70
2023-03-17T04:23:13.840Z,11.55
2023-03-17T04:24:46.004Z,11.75
2023-03-17T04:26:18.711Z,12.52
2023-03-17T04:27:50.322Z,14.35
2023-03-17T04:29:21.937Z,10.02
2023-03-17T04:30:53.567Z,9.40
2023-03-17T04:32:27.179Z,14.82
2023-03-17T04:33:59.030Z,12.80
2023-03-17T04:35:30.591Z,10.68
2023-03-17T04:37:02.454Z,11.80
2023-03-17T04:38:34.206Z,11.00
2023-03-17T04:40:09.998Z,12.52
2023-03-17T04:41:41.908Z,10.70
2023-03-17T04:43:13.462Z,13.98
2023-03-17T04:44:45.105Z,13.68
2023-03-17T04:46:16.720Z,14.52
2023-03-17T04:47:48.359Z,11.48
2023-03-17T04:49:19.934Z,10.15
2023-03-17T04:50:51.648Z,11.80
2023-03-17T04:52:23.461Z,14.90
2023-03-17T04:53:55.131Z,13.05
2023-03-17T04:55:27.538Z,13.00
2023-03-17T04:56:59.141Z,12.70
2023-03-17T04:58:31.359Z,14.25
2023-03-17T05:00:07.459Z,11.15
2023-03-17T05:01:39.324Z,12.38
2023-03-17T05:03:25.717Z,12.10
2023-03-17T05:04:58.173Z,8.48
2023-03-17T05:06:30.818Z,10.35
2023-03-17T05:08:02.411Z,8.05
2023-03-17T05:09:34.070Z,8.70
2023-03-17T05:11:06.238Z,10.52
2023-03-17T05:12:37.879Z,10.02
2023-03-17T05:14:09.529Z,8.73
2023-03-17T05:15:44.157Z,14.18
2023-03-17T05:17:15.847Z,9.50
2023-03-17T05:18:48.164Z,12.65
2023-03-17T05:20:20.020Z,15.35
2023-03-17T05:21:51.597Z,10.43
2023-03-17T05:23:23.353Z,11.18
2023-03-17T05:24:55.090Z,8.93
2023-03-17T05:26:27.224Z,9.38
2023-03-17T05:27:59.070Z,9.10
2023-03-17T05:29:30.705Z,10.23
2023-03-17T05:31:03.488Z,9.55
2023-03-17T05:32:36.491Z,9.73
2023-03-17T05:34:08.277Z,10.10
2023-03-17T05:35:40.777Z,10.48
2023-03-17T05:37:12.940Z,9.75
2023-03-17T05:38:44.784Z,8.50
2023-03-17T05:40:16.565Z,6.82
2023-03-17T05:41:48.284Z,10.00
2023-03-17T05:43:20.585Z,10.93
2023-03-17T05:44:52.215Z,7.28
2023-03-17T05:46:24.013Z,8.77
2023-03-17T05:47:55.834Z,7.13
2023-03-17T05:49:28.281Z,12.00
2023-03-17T05:51:00.264Z,10.52
2023-03-17T05:52:32.222Z,10.25
2023-03-17T05:54:04.160Z,9.18
2023-03-17T05:55:35.777Z,10.32
2023-03-17T05:57:07.765Z,6.90
2023-03-17T05:58:39.446Z,10.35
2023-03-17T06:00:13.058Z,10.18
2023-03-17T06:01:44.842Z,9.32
2023-03-17T06:03:16.485Z,10.00
2023-03-17T06:04:48.080Z,10.07
2023-03-17T06:06:20.081Z,15.68
2023-03-17T06:07:56.221Z,15.23
2023-03-17T06:09:28.192Z,10.75
2023-03-17T06:10:59.850Z,11.93
2023-03-17T06:12:31.505Z,11.20
2023-03-17T06:14:03.171Z,11.82
2023-03-17T06:15:37.006Z,9.38
2023-03-17T06:17:08.637Z,11.25
2023-03-17T06:18:41.031Z,10.48
2023-03-17T06:20:13.307Z,10.75
2023-03-17T06:21:45.150Z,13.55
2023-03-17T06:23:17.379Z,15.07
2023-03-17T06:24:49.087Z,7.53
2023-03-17T06:26:20.746Z,11.48
2023-03-17T06:27:54.738Z,17.63
2023-03-17T06:29:26.359Z,19.17
2023-03-17T06:30:58.568Z,22.85
2023-03-17T06:32:30.700Z,19.73
2023-03-17T06:34:03.123Z,14.32
2023-03-17T06:35:35.263Z,9.13
2023-03-17T06:37:06.986Z,8.65
2023-03-17T06:38:39.356Z,8.77
2023-03-17T06:40:12.561Z,8.80
2023-03-17T06:41:44.253Z,8.20
2023-03-17T06:43:17.467Z,8.50
2023-03-17T06:44:52.431Z,10.55
2023-03-17T06:46:24.134Z,10.07
2023-03-17T06:47:56.153Z,9.60
2023-03-17T06:49:27.734Z,12.57
2023-03-17T06:50:59.705Z,10.65
2023-03-17T06:52:31.740Z,9.98
2023-03-17T06:54:03.896Z,9.13
2023-03-17T06:55:35.705Z,11.02
2023-03-17T06:57:09.595Z,17.50
2023-03-17T06:58:41.927Z,13.50
2023-03-17T07:00:15.857Z,10.13
2023-03-17T07:01:49.015Z,13.15
2023-03-17T07:03:22.484Z,10.38
2023-03-17T07:04:54.290Z,13.82
2023-03-17T07:06:25.922Z,8.48
2023-03-17T07:07:57.682Z,9.25
2023-03-17T07:09:29.512Z,7.88
2023-03-17T07:11:01.834Z,10.70
2023-03-17T07:12:33.779Z,8.40
2023-03-17T07:14:06.354Z,12.05
2023-03-17T07:15:38.691Z,12.98
2023-03-17T07:17:12.456Z,9.18
2023-03-17T07:18:44.985Z,9.27
2023-03-17T07:20:16.872Z,13.13
2023-03-17T07:21:48.447Z,11.48
2023-03-17T07:23:22.730Z,10.35
2023-03-17T07:24:54.397Z,9.60
2023-03-17T07:26:26.395Z,10.02
2023-03-17T07:27:58.555Z,10.95
2023-03-17T07:29:32.395Z,9.00
2023-03-17T07:31:07.755Z,14.68
2023-03-17T07:32:39.607Z,13.68
2023-03-17T07:34:12.791Z,10.75
2023-03-17T07:35:44.517Z,9.60
2023-03-17T07:37:16.113Z,11.73
2023-03-17T07:38:48.606Z,9.82
2023-03-17T07:40:20.195Z,8.73
2023-03-17T07:41:55.565Z,9.40
2023-03-17T07:43:27.267Z,8.38
2023-03-17T07:44:58.919Z,12.30
2023-03-17T07:46:30.877Z,10.88
2023-03-17T07:48:06.865Z,7.53
2023-03-17T07:51:17.173Z,9.48
2023-03-17T07:52:48.835Z,10.23
2023-03-17T07:54:21.134Z,8.27
2023-03-17T07:55:52.760Z,10.20
2023-03-17T07:57:24.730Z,8.02
2023-03-17T07:58:58.513Z,13.95
2023-03-17T08:00:30.943Z,9.27
2023-03-17T08:02:03.008Z,8.20
2023-03-17T08:03:34.830Z,8.98
2023-03-17T08:05:07.744Z,9.50
2023-03-17T08:06:43.317Z,9.15
2023-03-17T08:08:15.450Z,14.55
2023-03-17T08:09:47.814Z,9.45
2023-03-17T08:11:20.294Z,12.02
2023-03-17T08:12:52.008Z,9.90
2023-03-17T08:14:23.652Z,7.85
2023-03-17T08:15:55.390Z,8.65
2023-03-17T08:17:27.545Z,8.90
2023-03-17T08:18:59.528Z,12.32
2023-03-17T08:20:31.813Z,8.85
2023-03-17T08:22:03.733Z,9.13
2023-03-17T08:23:35.692Z,16.17
2023-03-17T08:25:09.683Z,10.43
2023-03-17T08:26:41.433Z,11.23
2023-03-17T08:28:15.228Z,8.90
2023-03-17T08:29:47.201Z,10.07
2023-03-17T08:31:22.713Z,9.20
2023-03-17T08:32:57.176Z,10.25
2023-03-17T08:34:29.177Z,16.25
2023-03-17T08:36:04.717Z,9.23
2023-03-17T08:37:37.828Z,8.55
2023-03-17T08:39:10.523Z,8.57
2023-03-17T08:40:42.780Z,10.15
2023-03-17T08:42:14.715Z,10.02
2023-03-17T08:43:46.949Z,9.48
2023-03-17T08:45:18.853Z,9.30
2023-03-17T08:46:51.615Z,8.18
2023-03-17T08:48:23.231Z,9.63
2023-03-17T08:49:56.312Z,14.40
2023-03-17T08:51:32.084Z,10.23
2023-03-17T08:53:04.308Z,10.55
2023-03-17T08:54:36.109Z,9.48
2023-03-17T08:56:08.493Z,11.88
2023-03-17T08:57:40.223Z,12.05
2023-03-17T08:59:12.470Z,9.75
2023-03-17T09:00:46.906Z,7.65
2023-03-17T09:02:19.206Z,11.85
2023-03-17T09:03:53.387Z,10.95
2023-03-17T09:05:25.273Z,11.10
2023-03-17T09:07:04.794Z,13.68
2023-03-17T09:08:39.819Z,10.88
2023-03-17T09:10:13.801Z,8.13
2023-03-17T09:11:45.501Z,10.13
2023-03-17T09:13:17.735Z,8.02
2023-03-17T09:14:49.479Z,11.45
2023-03-17T09:16:23.156Z,8.77
2023-03-17T09:17:55.133Z,9.52
2023-03-17T09:19:27.230Z,9.90
2023-03-17T09:20:59.718Z,9.38
2023-03-17T09:22:31.307Z,8.88
2023-03-17T09:24:03.719Z,6.68
2023-03-17T09:25:40.015Z,7.25
2023-03-17T09:27:12.045Z,6.10
2023-03-17T09:28:44.780Z,9.38
2023-03-17T09:30:17.643Z,7.90
2023-03-17T09:31:49.318Z,8.48
2023-03-17T09:33:20.975Z,6.60
2023-03-17T09:34:52.655Z,6.53
2023-03-17T09:36:24.680Z,6.13
2023-03-17T09:37:56.326Z,7.75
2023-03-17T09:39:28.011Z,6.35
2023-03-17T09:41:14.765Z,6.68
2023-03-17T09:43:11.314Z,6.35
2023-03-17T09:45:17.428Z,5.63
2023-03-17T09:46:57.968Z,5.85
2023-03-17T09:48:41.881Z,6.88
2023-03-17T09:50:19.199Z,6.78
2023-03-17T09:51:51.609Z,6.10
2023-03-17T09:53:36.556Z,8.18
2023-03-17T09:55:18.425Z,7.30
2023-03-17T09:56:59.119Z,9.00
2023-03-17T09:58:36.321Z,7.10
2023-03-17T10:00:18.452Z,7.93
2023-03-17T10:01:50.363Z,7.43
2023-03-17T10:03:23.553Z,6.13
2023-03-17T10:04:56.275Z,6.43
2023-03-17T10:06:34.940Z,4.43
2023-03-17T10:08:28.975Z,8.65
2023-03-17T10:10:13.418Z,6.82
2023-03-17T10:11:48.624Z,6.50
2023-03-17T10:13:20.186Z,7.22
2023-03-17T10:15:00.790Z,6.80
2023-03-17T10:16:51.346Z,6.78
2023-03-17T10:18:27.876Z,6.30
2023-03-17T10:20:05.983Z,5.97
2023-03-17T10:21:48.203Z,8.23
2023-03-17T10:23:23.979Z,6.95
2023-03-17T10:25:03.889Z,6.82
2023-03-17T10:26:47.831Z,5.72
2023-03-17T10:28:23.826Z,7.50
2023-03-17T10:29:57.062Z,5.72
2023-03-17T10:31:33.338Z,7.68
2023-03-17T10:33:07.192Z,6.28
2023-03-17T10:34:39.864Z,7.63
2023-03-17T10:36:15.775Z,7.70
2023-03-17T10:37:48.363Z,9.02
2023-03-17T10:39:24.736Z,10.98
2023-03-17T10:41:05.715Z,10.38
2023-03-17T10:42:49.307Z,8.52
2023-03-17T10:44:30.633Z,9.00
2023-03-17T10:46:05.163Z,8.45
2023-03-17T10:47:46.075Z,6.72
2023-03-17T10:49:18.256Z,11.80
2023-03-17T10:50:50.276Z,9.38
2023-03-17T10:52:27.775Z,9.65
2023-03-17T10:54:01.376Z,6.47
2023-03-17T10:55:44.807Z,6.65
2023-03-17T10:57:18.388Z,7.60
2023-03-17T10:58:52.700Z,9.20
2023-03-17T11:00:24.929Z,6.68
2023-03-17T11:02:00.175Z,5.93
2023-03-17T11:03:35.316Z,6.63
2023-03-17T11:05:19.460Z,14.02
2023-03-17T11:06:52.484Z,6.80
2023-03-17T11:08:24.483Z,6.07
2023-03-17T11:10:01.452Z,9.13
2023-03-17T11:11:43.179Z,6.60
2023-03-17T11:13:17.818Z,6.53
2023-03-17T11:14:50.016Z,7.47
2023-03-17T11:16:24.224Z,9.80
2023-03-17T11:17:58.022Z,5.38
2023-03-17T11:19:46.108Z,5.18
2023-03-17T11:21:26.670Z,8.40
2023-03-17T11:23:06.956Z,6.93
2023-03-17T11:24:53.803Z,8.02
2023-03-17T11:26:47.680Z,8.77
2023-03-17T11:28:22.820Z,6.10
2023-03-17T11:30:12.903Z,7.88
2023-03-17T11:31:58.293Z,9.20
2023-03-17T11:33:48.499Z,7.03
2023-03-17T11:35:37.052Z,7.75
2023-03-17T11:37:26.232Z,6.30
2023-03-17T11:39:05.654Z,8.52
2023-03-17T11:40:46.870Z,6.00
2023-03-17T11:42:41.453Z,5.50
2023-03-17T11:46:05.634Z,5.20
2023-03-17T11:47:52.304Z,5.68
2023-03-17T11:49:38.124Z,5.32
2023-03-17T11:51:22.140Z,5.95
2023-03-17T11:53:19.610Z,4.78
2023-03-17T11:55:02.458Z,4.57
2023-03-17T11:56:46.363Z,7.18
2023-03-17T11:58:32.147Z,5.65
2023-03-17T12:00:07.705Z,6.20
2023-03-17T12:02:04.714Z,9.77
2023-03-17T12:03:43.372Z,4.60
2023-03-17T12:05:24.278Z,5.40
2023-03-17T12:07:15.889Z,8.07
2023-03-17T12:09:00.815Z,7.82
2023-03-17T12:10:52.265Z,3.55
2023-03-17T12:12:30.312Z,5.80
2023-03-17T12:14:11.301Z,8.52
2023-03-17T12:15:46.152Z,5.78
2023-03-17T12:17:30.303Z,4.30
2023-03-17T12:19:10.210Z,9.32
2023-03-17T12:20:57.853Z,5.22
2023-03-17T12:22:50.758Z,6.00
2023-03-17T12:24:24.985Z,5.93
2023-03-17T12:26:12.384Z,8.77
2023-03-17T12:27:53.137Z,6.10
2023-03-17T12:29:51.720Z,5.22
2023-03-17T12:31:31.774Z,6.18
2023-03-17T12:33:10.884Z,6.07
2023-03-17T12:34:52.061Z,4.32
2023-03-17T12:36:24.362Z,4.43
2023-03-17T12:37:59.449Z,5.13
2023-03-17T12:39:33.619Z,8.10
2023-03-17T12:41:15.232Z,7.25
2023-03-17T12:43:02.783Z,10.07
2023-03-17T12:45:05.577Z,6.82
2023-03-17T12:46:49.284Z,5.28
2023-03-17T12:48:33.678Z,5.75
2023-03-17T12:50:27.413Z,4.10
2023-03-17T12:52:01.945Z,7.45
2023-03-17T12:53:37.851Z,6.57
2023-03-17T12:55:14.477Z,9.77
2023-03-17T12:56:48.141Z,7.85
2023-03-17T12:58:53.265Z,11.88
2023-03-17T13:00:29.676Z,4.40
2023-03-17T13:02:29.311Z,5.72
2023-03-17T13:04:13.119Z,4.13
2023-03-17T13:05:48.081Z,6.43
2023-03-17T13:07:24.025Z,17.05
2023-03-17T13:08:55.807Z,4.45
2023-03-17T13:10:37.364Z,6.53
2023-03-17T13:12:40.951Z,6.35
2023-03-17T13:14:29.356Z,4.35
2023-03-17T13:16:05.715Z,3.78
2023-03-17T13:17:38.183Z,7.13
2023-03-17T13:19:26.871Z,5.22
2023-03-17T13:21:01.136Z,3.92
2023-03-17T13:22:57.338Z,4.68
2023-03-17T13:24:51.843Z,2.78
2023-03-17T13:28:13.740Z,5.35
2023-03-17T13:29:47.276Z,4.80
2023-03-17T13:31:29.166Z,6.43
2023-03-17T13:33:10.018Z,4.68
2023-03-17T13:34:50.635Z,3.92
2023-03-17T13:36:49.609Z,5.43
2023-03-17T13:38:39.327Z,10.68
2023-03-17T13:40:24.938Z,16.17
2023-03-17T13:42:18.959Z,4.05
2023-03-17T13:44:24.418Z,6.18
2023-03-17T13:46:19.785Z,5.82
2023-03-17T13:47:52.699Z,4.90
2023-03-17T13:49:30.161Z,6.70
2023-03-17T13:51:08.929Z,7.55
2023-03-17T13:52:47.539Z,15.70
2023-03-17T13:54:28.393Z,18.83
2023-03-17T13:56:14.460Z,19.05
2023-03-17T13:58:10.856Z,6.10
2023-03-17T14:00:28.511Z,4.50
2023-03-17T14:02:11.367Z,4.80
2023-03-17T14:03:49.061Z,5.47
2023-03-17T14:05:23.819Z,10.55
2023-03-17T14:07:00.563Z,5.82
2023-03-17T14:08:35.705Z,6.30
2023-03-17T14:10:10.306Z,5.57
2023-03-17T14:11:46.313Z,6.95
2023-03-17T14:15:06.979Z,3.35
2023-03-17T14:16:52.421Z,5.32
2023-03-17T14:18:49.662Z,5.80
2023-03-17T14:20:24.816Z,2.67
2023-03-17T14:22:17.944Z,14.30
2023-03-17T14:24:01.484Z,10.07
2023-03-17T14:25:37.754Z,17.65
2023-03-17T14:27:12.634Z,5.82
2023-03-17T14:28:44.360Z,9.38
2023-03-17T14:30:19.828Z,18.27
2023-03-17T14:32:02.419Z,16.13
2023-03-17T14:33:38.296Z,22.58
2023-03-17T14:35:13.919Z,13.55
2023-03-17T14:36:45.626Z,11.25
2023-03-17T14:38:29.991Z,6.25
2023-03-17T14:40:01.820Z,6.13
2023-03-17T14:41:37.502Z,3.97
2023-03-17T14:44:43.719Z,7.95
2023-03-17T14:46:25.959Z,10.18
2023-03-17T14:47:58.066Z,8.88
2023-03-17T14:49:32.016Z,11.07
2023-03-17T14:51:10.737Z,7.18
2023-03-17T14:52:42.833Z,9.00
2023-03-17T14:54:25.040Z,11.88
2023-03-17T14:55:57.460Z,11.55
2023-03-17T14:57:33.232Z,14.23
2023-03-17T15:00:57.148Z,3.70
2023-03-17T15:02:38.374Z,6.00
2023-03-17T15:04:17.843Z,6.88
2023-03-17T15:05:50.377Z,6.18
2023-03-17T15:07:31.340Z,11.48
2023-03-17T15:09:17.007Z,6.93
2023-03-17T15:10:48.814Z,4.30
2023-03-17T15:12:24.394Z,7.07
2023-03-17T15:14:31.877Z,4.65
2023-03-17T15:16:30.826Z,4.43
2023-03-17T15:18:12.968Z,6.00
2023-03-17T15:19:47.932Z,4.55
2023-03-17T15:21:28.760Z,9.80
2023-03-17T15:23:04.870Z,5.53
2023-03-17T15:24:40.823Z,7.18
2023-03-17T15:26:29.175Z,7.72
2023-03-17T15:28:00.938Z,8.85
2023-03-17T15:29:36.452Z,11.35
2023-03-17T15:31:13.352Z,8.90
2023-03-17T15:33:00.906Z,8.27
2023-03-17T15:34:32.611Z,6.13
2023-03-17T15:36:04.922Z,9.70
2023-03-17T15:37:36.673Z,5.50
2023-03-17T15:39:09.412Z,11.07
2023-03-17T15:40:41.421Z,11.23
2023-03-17T15:42:13.137Z,10.93
2023-03-17T15:43:44.741Z,10.77
2023-03-17T15:45:17.401Z,10.38
2023-03-17T15:46:49.063Z,7.97
2023-03-17T15:48:26.061Z,6.55
2023-03-17T15:50:00.160Z,10.25
2023-03-17T15:51:31.800Z,9.00
2023-03-17T15:53:03.962Z,7.07
2023-03-17T15:54:36.127Z,7.85
2023-03-17T15:56:16.021Z,6.40
2023-03-17T15:57:54.850Z,9.57
2023-03-17T15:59:27.228Z,12.20
2023-03-17T16:00:59.772Z,5.43
2023-03-17T16:02:34.033Z,10.70
2023-03-17T16:04:06.957Z,11.23
2023-03-17T16:05:38.939Z,5.70
2023-03-17T16:07:13.620Z,5.93
2023-03-17T16:08:46.285Z,7.63
2023-03-17T16:10:20.097Z,10.50
2023-03-17T16:11:52.293Z,13.75
2023-03-17T16:13:24.046Z,16.48
2023-03-17T16:14:55.793Z,17.38
2023-03-17T16:16:39.765Z,18.02
2023-03-17T16:18:18.218Z,16.30
2023-03-17T16:19:50.434Z,13.45
2023-03-17T16:21:22.335Z,12.00
2023-03-17T16:22:57.170Z,15.35
2023-03-17T16:24:28.908Z,10.52
2023-03-17T16:26:13.710Z,11.07
2023-03-17T16:27:47.073Z,9.18
2023-03-17T16:29:21.234Z,7.70
2023-03-17T16:30:54.691Z,7.90
2023-03-17T16:32:26.618Z,9.32
2023-03-17T16:33:58.588Z,8.82
2023-03-17T16:35:30.267Z,5.60
2023-03-17T16:37:03.234Z,7.28
2023-03-17T16:38:34.931Z,10.32
2023-03-17T16:40:19.311Z,8.70
2023-03-17T16:41:51.539Z,8.93
2023-03-17T16:43:26.611Z,7.38
2023-03-17T16:44:58.318Z,10.38
2023-03-17T16:46:35.377Z,5.65
2023-03-17T16:48:13.128Z,8.60
2023-03-17T16:49:44.717Z,10.23
2023-03-17T16:51:16.538Z,8.20
2023-03-17T16:52:48.694Z,6.07
2023-03-17T16:54:20.552Z,9.73
2023-03-17T16:55:54.002Z,9.60
2023-03-17T16:57:25.792Z,10.60
2023-03-17T16:58:57.623Z,9.02
2023-03-17T17:00:31.182Z,7.97
2023-03-17T17:02:03.150Z,5.55
2023-03-17T17:03:37.806Z,6.70
2023-03-17T17:05:19.129Z,8.35
2023-03-17T17:06:50.844Z,7.10
2023-03-17T17:08:22.594Z,7.78
2023-03-17T17:09:54.207Z,6.50
2023-03-17T17:11:25.863Z,7.28
2023-03-17T17:12:57.701Z,6.45
2023-03-17T17:14:29.414Z,5.32
2023-03-17T17:16:04.242Z,4.93
2023-03-17T17:17:38.079Z,5.18
2023-03-17T17:19:16.673Z,6.00
2023-03-17T17:20:49.269Z,8.65
2023-03-17T17:22:20.896Z,4.82
2023-03-17T17:23:53.427Z,6.60
2023-03-17T17:25:25.604Z,5.93
2023-03-17T17:26:57.518Z,8.30
2023-03-17T17:28:29.214Z,8.38
2023-03-17T17:30:01.058Z,8.27
2023-03-17T17:31:35.459Z,7.88
2023-03-17T17:33:07.170Z,9.15
2023-03-17T17:34:38.873Z,8.25
2023-03-17T17:36:16.391Z,7.50
2023-03-17T17:37:48.049Z,6.40
2023-03-17T17:39:19.708Z,6.85
2023-03-17T17:40:51.486Z,5.85
2023-03-17T17:42:23.586Z,7.75
2023-03-17T17:43:56.116Z,11.45
2023-03-17T17:45:27.768Z,7.18
2023-03-17T17:46:59.491Z,7.60
2023-03-17T17:48:31.234Z,7.68
2023-03-17T17:50:02.927Z,5.85
2023-03-17T17:51:34.594Z,6.70
2023-03-17T17:53:08.778Z,10.25
2023-03-17T17:54:40.804Z,5.78
2023-03-17T17:56:17.701Z,5.45
2023-03-17T17:57:51.971Z,6.10
2023-03-17T17:59:24.140Z,10.05
2023-03-17T18:00:57.298Z,4.93
2023-03-17T18:02:29.083Z,6.07
2023-03-17T18:04:00.834Z,6.10
2023-03-17T18:05:32.602Z,7.82
2023-03-17T18:07:04.575Z,5.68
2023-03-17T18:08:37.216Z,5.18
2023-03-17T18:10:16.718Z,4.03
2023-03-17T18:11:48.580Z,4.90
2023-03-17T18:13:20.544Z,11.60
2023-03-17T18:14:52.144Z,7.03
2023-03-17T18:16:24.606Z,7.25
2023-03-17T18:17:56.750Z,7.47
2023-03-17T18:19:28.408Z,7.43
2023-03-17T18:21:00.284Z,7.28
2023-03-17T18:22:32.043Z,7.85
2023-03-17T18:24:04.804Z,4.93
2023-03-17T18:25:37.393Z,8.15
2023-03-17T18:27:09.424Z,5.43
2023-03-17T18:28:41.877Z,6.55
2023-03-17T18:30:21.232Z,7.30
2023-03-17T18:31:54.882Z,5.00
2023-03-17T18:33:27.036Z,11.63
2023-03-17T18:35:02.874Z,9.00
2023-03-17T18:38:06.109Z,11.18
2023-03-17T18:39:38.592Z,7.95
2023-03-17T18:41:11.119Z,8.73
2023-03-17T18:42:42.875Z,10.55
2023-03-17T18:44:14.907Z,8.30
2023-03-17T18:45:46.600Z,8.48
2023-03-17T18:47:18.550Z,8.63
2023-03-17T18:48:51.080Z,7.35
2023-03-17T18:50:22.854Z,6.65
2023-03-17T18:51:56.360Z,13.32
2023-03-17T18:53:30.026Z,12.77
2023-03-17T18:55:01.919Z,12.18
2023-03-17T18:56:33.614Z,14.52
2023-03-17T18:58:06.344Z,8.77
2023-03-17T18:59:37.942Z,13.80
2023-03-17T19:01:09.821Z,10.73
2023-03-17T19:02:41.765Z,11.30
2023-03-17T19:04:13.543Z,8.98
2023-03-17T19:05:45.934Z,11.50
2023-03-17T19:07:18.026Z,10.20
2023-03-17T19:08:49.981Z,10.10
2023-03-17T19:10:21.611Z,8.50
2023-03-17T19:11:53.320Z,7.93
2023-03-17T19:13:25.831Z,13.02
2023-03-17T19:14:57.586Z,12.77
2023-03-17T19:16:30.817Z,18.35
2023-03-17T19:18:02.673Z,13.68
2023-03-17T19:19:35.440Z,14.10
2023-03-17T19:21:08.458Z,11.32
2023-03-17T19:22:40.480Z,12.05
2023-03-17T19:24:14.221Z,13.18
2023-03-17T19:25:46.048Z,16.42
2023-03-17T19:27:18.069Z,12.13
2023-03-17T19:28:49.741Z,13.20
2023-03-17T19:30:21.534Z,11.13
2023-03-17T19:31:53.776Z,9.15
2023-03-17T19:33:25.715Z,9.95
2023-03-17T19:34:57.426Z,9.90
2023-03-17T19:36:36.184Z,11.38
2023-03-17T19:38:11.308Z,16.08
2023-03-17T19:39:45.054Z,10.63
2023-03-17T19:41:17.865Z,11.57
2023-03-17T19:42:49.993Z,10.88
2023-03-17T19:44:22.138Z,15.18
2023-03-17T19:45:54.175Z,9.80
2023-03-17T19:47:25.870Z,14.13
2023-03-17T19:48:57.683Z,11.85
2023-03-17T19:50:30.782Z,11.25
2023-03-17T19:52:03.296Z,8.60
2023-03-17T19:53:35.575Z,14.95
2023-03-17T19:55:08.417Z,10.20
2023-03-17T19:56:40.535Z,14.55
2023-03-17T19:58:12.880Z,11.68
2023-03-17T19:59:44.775Z,11.05
2023-03-17T20:01:17.315Z,15.07
2023-03-17T20:02:49.934Z,12.93
2023-03-17T20:04:23.342Z,10.63
2023-03-17T20:05:55.404Z,13.20
2023-03-17T20:07:27.049Z,11.07
2023-03-17T20:08:58.765Z,13.82
2023-03-17T20:10:30.747Z,11.75
2023-03-17T20:12:02.529Z,13.02
2023-03-17T20:13:35.432Z,17.90
2023-03-17T20:15:08.521Z,16.50
2023-03-17T20:16:41.566Z,16.17
2023-03-17T20:18:13.436Z,14.57
2023-03-17T20:19:45.534Z,14.43
2023-03-17T20:21:17.237Z,15.65
2023-03-17T20:22:48.965Z,15.88
2023-03-17T20:24:20.751Z,14.15
2023-03-17T20:25:53.397Z,12.48
2023-03-17T20:27:25.379Z,16.90
2023-03-17T20:28:57.052Z,14.80
2023-03-17T20:30:28.744Z,16.80
2023-03-17T20:32:02.168Z,18.95
2023-03-17T20:33:34.336Z,17.38
2023-03-17T20:35:07.912Z,22.27
2023-03-17T20:36:42.438Z,23.58
2023-03-17T20:38:14.745Z,19.67
2023-03-17T20:39:46.486Z,18.25
2023-03-17T20:41:19.519Z,17.80
2023-03-17T20:42:52.067Z,18.88
2023-03-17T20:44:24.164Z,21.00
2023-03-17T20:45:55.817Z,21.02
2023-03-17T20:47:28.272Z,19.50
2023-03-17T20:49:01.182Z,14.48
2023-03-17T20:50:34.340Z,18.23
2023-03-17T20:52:06.682Z,15.15
2023-03-17T20:53:38.938Z,16.38
2023-03-17T20:55:14.089Z,15.27
2023-03-17T20:56:45.854Z,15.63
2023-03-17T20:58:19.927Z,18.55
2023-03-17T20:59:52.021Z,16.67